sensor_id;sensor_type;location;lat;lon;timestamp;P1;durP1;ratioP1;P2;durP2;ratioP2
79747;SDS011;69232;47.488;19.268;2024-02-23T00:00:23;1.88;;;1.33;;
79747;SDS011;69232;47.488;19.268;2024-02-23T00:02:48;1.60;;;1.38;;
79747;SDS011;69232;47.488;19.268;2024-02-23T00:05:14;2.42;;;1.65;;
79747;SDS011;69232;47.488;19.268;2024-02-23T00:07:39;2.45;;;1.48;;
79747;SDS011;69232;47.488;19.268;2024-02-23T00:10:05;2.05;;;1.80;;
79747;SDS011;69232;47.488;19.268;2024-02-23T00:12:31;2.83;;;1.77;;
79747;SDS011;69232;47.488;19.268;2024-02-23T00:14:56;2.10;;;1.70;;
79747;SDS011;69232;47.488;19.268;2024-02-23T00:17:21;2.33;;;1.77;;
79747;SDS011;69232;47.488;19.268;2024-02-23T00:19:48;3.25;;;1.75;;
79747;SDS011;69232;47.488;19.268;2024-02-23T00:22:14;2.53;;;1.70;;
79747;SDS011;69232;47.488;19.268;2024-02-23T00:24:39;4.10;;;1.70;;
79747;SDS011;69232;47.488;19.268;2024-02-23T00:27:05;2.05;;;1.42;;
79747;SDS011;69232;47.488;19.268;2024-02-23T00:29:31;2.90;;;1.98;;
79747;SDS011;69232;47.488;19.268;2024-02-23T00:31:56;2.47;;;1.80;;
79747;SDS011;69232;47.488;19.268;2024-02-23T00:34:21;3.22;;;1.90;;
79747;SDS011;69232;47.488;19.268;2024-02-23T00:36:47;2.83;;;1.85;;
79747;SDS011;69232;47.488;19.268;2024-02-23T00:39:13;2.17;;;1.73;;
79747;SDS011;69232;47.488;19.268;2024-02-23T00:41:39;2.05;;;1.60;;
79747;SDS011;69232;47.488;19.268;2024-02-23T00:44:04;3.58;;;1.50;;
79747;SDS011;69232;47.488;19.268;2024-02-23T00:46:29;5.18;;;2.08;;
79747;SDS011;69232;47.488;19.268;2024-02-23T00:48:55;1.90;;;1.58;;
79747;SDS011;69232;47.488;19.268;2024-02-23T00:51:20;3.85;;;1.70;;
79747;SDS011;69232;47.488;19.268;2024-02-23T00:53:46;3.42;;;1.63;;
79747;SDS011;69232;47.488;19.268;2024-02-23T00:56:11;2.58;;;1.67;;
79747;SDS011;69232;47.488;19.268;2024-02-23T00:58:37;4.32;;;1.77;;
79747;SDS011;69232;47.488;19.268;2024-02-23T01:01:03;4.57;;;2.53;;
79747;SDS011;69232;47.488;19.268;2024-02-23T01:03:28;3.83;;;1.95;;
79747;SDS011;69232;47.488;19.268;2024-02-23T01:05:54;3.60;;;1.92;;
79747;SDS011;69232;47.488;19.268;2024-02-23T01:08:19;3.58;;;2.03;;
79747;SDS011;69232;47.488;19.268;2024-02-23T01:10:44;3.67;;;2.33;;
79747;SDS011;69232;47.488;19.268;2024-02-23T01:13:10;4.57;;;2.28;;
79747;SDS011;69232;47.488;19.268;2024-02-23T01:15:35;4.45;;;2.42;;
79747;SDS011;69232;47.488;19.268;2024-02-23T01:18:00;5.65;;;2.47;;
79747;SDS011;69232;47.488;19.268;2024-02-23T01:20:26;4.68;;;2.50;;
79747;SDS011;69232;47.488;19.268;2024-02-23T01:22:51;5.40;;;2.88;;
79747;SDS011;69232;47.488;19.268;2024-02-23T01:25:16;3.50;;;2.38;;
79747;SDS011;69232;47.488;19.268;2024-02-23T01:27:42;5.85;;;2.40;;
79747;SDS011;69232;47.488;19.268;2024-02-23T01:30:09;3.35;;;2.55;;
79747;SDS011;69232;47.488;19.268;2024-02-23T01:32:35;3.53;;;2.38;;
79747;SDS011;69232;47.488;19.268;2024-02-23T01:35:02;3.40;;;2.50;;
79747;SDS011;69232;47.488;19.268;2024-02-23T01:37:28;3.95;;;2.40;;
79747;SDS011;69232;47.488;19.268;2024-02-23T01:39:53;4.55;;;2.88;;
79747;SDS011;69232;47.488;19.268;2024-02-23T01:42:18;3.60;;;2.20;;
79747;SDS011;69232;47.488;19.268;2024-02-23T01:44:44;4.80;;;2.40;;
79747;SDS011;69232;47.488;19.268;2024-02-23T01:47:09;3.50;;;2.20;;
79747;SDS011;69232;47.488;19.268;2024-02-23T01:49:35;2.85;;;2.50;;
79747;SDS011;69232;47.488;19.268;2024-02-23T01:52:01;7.40;;;2.58;;
79747;SDS011;69232;47.488;19.268;2024-02-23T01:54:27;5.63;;;2.63;;
79747;SDS011;69232;47.488;19.268;2024-02-23T01:56:56;5.53;;;2.55;;
79747;SDS011;69232;47.488;19.268;2024-02-23T01:59:22;4.93;;;2.72;;
79747;SDS011;69232;47.488;19.268;2024-02-23T02:01:48;3.13;;;2.65;;
79747;SDS011;69232;47.488;19.268;2024-02-23T02:04:13;4.13;;;2.05;;
79747;SDS011;69232;47.488;19.268;2024-02-23T02:06:39;3.42;;;2.25;;
79747;SDS011;69232;47.488;19.268;2024-02-23T02:09:04;6.03;;;2.38;;
79747;SDS011;69232;47.488;19.268;2024-02-23T02:11:30;3.10;;;2.33;;
79747;SDS011;69232;47.488;19.268;2024-02-23T02:13:56;2.30;;;2.10;;
79747;SDS011;69232;47.488;19.268;2024-02-23T02:16:21;2.80;;;2.25;;
79747;SDS011;69232;47.488;19.268;2024-02-23T02:18:46;3.13;;;2.03;;
79747;SDS011;69232;47.488;19.268;2024-02-23T02:21:12;3.63;;;2.58;;
79747;SDS011;69232;47.488;19.268;2024-02-23T02:23:37;3.33;;;2.03;;
79747;SDS011;69232;47.488;19.268;2024-02-23T02:26:03;4.05;;;2.20;;
79747;SDS011;69232;47.488;19.268;2024-02-23T02:28:28;3.92;;;2.45;;
79747;SDS011;69232;47.488;19.268;2024-02-23T02:30:54;3.22;;;2.50;;
79747;SDS011;69232;47.488;19.268;2024-02-23T02:33:20;6.97;;;1.98;;
79747;SDS011;69232;47.488;19.268;2024-02-23T02:35:45;5.95;;;2.20;;
79747;SDS011;69232;47.488;19.268;2024-02-23T02:38:11;3.55;;;2.03;;
79747;SDS011;69232;47.488;19.268;2024-02-23T02:40:36;4.82;;;2.40;;
79747;SDS011;69232;47.488;19.268;2024-02-23T02:43:02;2.83;;;1.92;;
79747;SDS011;69232;47.488;19.268;2024-02-23T02:45:27;3.70;;;1.95;;
79747;SDS011;69232;47.488;19.268;2024-02-23T02:47:53;3.08;;;2.35;;
79747;SDS011;69232;47.488;19.268;2024-02-23T02:50:18;3.70;;;2.10;;
79747;SDS011;69232;47.488;19.268;2024-02-23T02:52:43;4.35;;;1.95;;
79747;SDS011;69232;47.488;19.268;2024-02-23T02:55:09;5.47;;;1.90;;
79747;SDS011;69232;47.488;19.268;2024-02-23T02:57:34;6.60;;;2.88;;
79747;SDS011;69232;47.488;19.268;2024-02-23T03:00:03;2.90;;;2.03;;
79747;SDS011;69232;47.488;19.268;2024-02-23T03:02:33;3.03;;;2.00;;
79747;SDS011;69232;47.488;19.268;2024-02-23T03:04:59;3.33;;;1.55;;
79747;SDS011;69232;47.488;19.268;2024-02-23T03:07:25;2.80;;;2.03;;
79747;SDS011;69232;47.488;19.268;2024-02-23T03:09:50;4.10;;;2.35;;
79747;SDS011;69232;47.488;19.268;2024-02-23T03:12:16;3.40;;;1.88;;
79747;SDS011;69232;47.488;19.268;2024-02-23T03:14:42;4.47;;;2.13;;
79747;SDS011;69232;47.488;19.268;2024-02-23T03:17:08;4.90;;;2.25;;
79747;SDS011;69232;47.488;19.268;2024-02-23T03:19:34;3.90;;;1.88;;
79747;SDS011;69232;47.488;19.268;2024-02-23T03:21:59;3.70;;;2.15;;
79747;SDS011;69232;47.488;19.268;2024-02-23T03:24:25;2.88;;;2.08;;
79747;SDS011;69232;47.488;19.268;2024-02-23T03:26:50;2.92;;;2.22;;
79747;SDS011;69232;47.488;19.268;2024-02-23T03:29:16;2.70;;;2.33;;
79747;SDS011;69232;47.488;19.268;2024-02-23T03:31:41;2.40;;;1.92;;
79747;SDS011;69232;47.488;19.268;2024-02-23T03:34:06;3.83;;;2.00;;
79747;SDS011;69232;47.488;19.268;2024-02-23T03:36:32;2.90;;;1.88;;
79747;SDS011;69232;47.488;19.268;2024-02-23T03:38:58;3.28;;;2.33;;
79747;SDS011;69232;47.488;19.268;2024-02-23T03:41:24;4.40;;;2.42;;
79747;SDS011;69232;47.488;19.268;2024-02-23T03:43:49;4.80;;;1.90;;
79747;SDS011;69232;47.488;19.268;2024-02-23T03:46:14;3.28;;;2.05;;
79747;SDS011;69232;47.488;19.268;2024-02-23T03:48:41;4.13;;;2.30;;
79747;SDS011;69232;47.488;19.268;2024-02-23T03:51:08;5.38;;;2.40;;
79747;SDS011;69232;47.488;19.268;2024-02-23T03:53:33;4.82;;;2.10;;
79747;SDS011;69232;47.488;19.268;2024-02-23T03:55:59;3.83;;;2.35;;
79747;SDS011;69232;47.488;19.268;2024-02-23T03:58:24;3.58;;;2.28;;
79747;SDS011;69232;47.488;19.268;2024-02-23T04:00:50;3.33;;;2.13;;
79747;SDS011;69232;47.488;19.268;2024-02-23T04:03:16;3.30;;;2.17;;
79747;SDS011;69232;47.488;19.268;2024-02-23T04:05:41;4.38;;;2.60;;
79747;SDS011;69232;47.488;19.268;2024-02-23T04:08:07;4.60;;;2.65;;
79747;SDS011;69232;47.488;19.268;2024-02-23T04:10:32;6.80;;;3.35;;
79747;SDS011;69232;47.488;19.268;2024-02-23T04:12:57;3.88;;;2.42;;
79747;SDS011;69232;47.488;19.268;2024-02-23T04:15:23;4.60;;;2.58;;
79747;SDS011;69232;47.488;19.268;2024-02-23T04:17:48;3.42;;;2.38;;
79747;SDS011;69232;47.488;19.268;2024-02-23T04:20:14;4.93;;;2.95;;
79747;SDS011;69232;47.488;19.268;2024-02-23T04:22:39;7.18;;;2.85;;
79747;SDS011;69232;47.488;19.268;2024-02-23T04:25:05;4.30;;;2.47;;
79747;SDS011;69232;47.488;19.268;2024-02-23T04:27:30;4.68;;;2.95;;
79747;SDS011;69232;47.488;19.268;2024-02-23T04:29:55;6.65;;;2.70;;
79747;SDS011;69232;47.488;19.268;2024-02-23T04:32:21;4.22;;;2.90;;
79747;SDS011;69232;47.488;19.268;2024-02-23T04:34:46;5.10;;;2.63;;
79747;SDS011;69232;47.488;19.268;2024-02-23T04:37:12;7.90;;;3.15;;
79747;SDS011;69232;47.488;19.268;2024-02-23T04:39:37;3.83;;;2.63;;
79747;SDS011;69232;47.488;19.268;2024-02-23T04:42:03;5.15;;;2.50;;
79747;SDS011;69232;47.488;19.268;2024-02-23T04:44:29;6.03;;;2.75;;
79747;SDS011;69232;47.488;19.268;2024-02-23T04:46:54;4.57;;;2.50;;
79747;SDS011;69232;47.488;19.268;2024-02-23T04:49:20;3.95;;;2.47;;
79747;SDS011;69232;47.488;19.268;2024-02-23T04:51:45;4.28;;;2.78;;
79747;SDS011;69232;47.488;19.268;2024-02-23T04:54:10;4.43;;;2.55;;
79747;SDS011;69232;47.488;19.268;2024-02-23T04:56:36;4.05;;;2.75;;
79747;SDS011;69232;47.488;19.268;2024-02-23T04:59:01;5.20;;;2.85;;
79747;SDS011;69232;47.488;19.268;2024-02-23T05:01:27;6.78;;;4.13;;
79747;SDS011;69232;47.488;19.268;2024-02-23T05:03:52;7.43;;;3.40;;
79747;SDS011;69232;47.488;19.268;2024-02-23T05:06:17;6.68;;;3.20;;
79747;SDS011;69232;47.488;19.268;2024-02-23T05:08:43;6.53;;;3.30;;
79747;SDS011;69232;47.488;19.268;2024-02-23T05:11:08;4.30;;;2.83;;
79747;SDS011;69232;47.488;19.268;2024-02-23T05:13:34;3.88;;;2.90;;
79747;SDS011;69232;47.488;19.268;2024-02-23T05:15:59;4.60;;;3.30;;
79747;SDS011;69232;47.488;19.268;2024-02-23T05:18:25;5.88;;;3.00;;
79747;SDS011;69232;47.488;19.268;2024-02-23T05:20:50;4.20;;;3.05;;
79747;SDS011;69232;47.488;19.268;2024-02-23T05:23:15;4.35;;;2.28;;
79747;SDS011;69232;47.488;19.268;2024-02-23T05:25:41;4.28;;;2.72;;
79747;SDS011;69232;47.488;19.268;2024-02-23T05:28:07;4.13;;;2.65;;
79747;SDS011;69232;47.488;19.268;2024-02-23T05:30:32;2.88;;;2.42;;
79747;SDS011;69232;47.488;19.268;2024-02-23T05:32:58;5.53;;;2.50;;
79747;SDS011;69232;47.488;19.268;2024-02-23T05:35:24;4.85;;;2.80;;
79747;SDS011;69232;47.488;19.268;2024-02-23T05:37:50;5.47;;;2.55;;
79747;SDS011;69232;47.488;19.268;2024-02-23T05:40:15;5.03;;;2.42;;
79747;SDS011;69232;47.488;19.268;2024-02-23T05:42:40;3.45;;;2.35;;
79747;SDS011;69232;47.488;19.268;2024-02-23T05:45:06;2.95;;;2.17;;
79747;SDS011;69232;47.488;19.268;2024-02-23T05:47:37;5.53;;;2.85;;
79747;SDS011;69232;47.488;19.268;2024-02-23T05:50:03;4.85;;;3.13;;
79747;SDS011;69232;47.488;19.268;2024-02-23T05:52:33;3.08;;;2.30;;
79747;SDS011;69232;47.488;19.268;2024-02-23T05:54:58;4.32;;;2.50;;
79747;SDS011;69232;47.488;19.268;2024-02-23T05:57:25;3.13;;;2.00;;
79747;SDS011;69232;47.488;19.268;2024-02-23T05:59:51;3.20;;;2.50;;
79747;SDS011;69232;47.488;19.268;2024-02-23T06:02:17;2.65;;;2.30;;
79747;SDS011;69232;47.488;19.268;2024-02-23T06:04:42;3.13;;;2.33;;
79747;SDS011;69232;47.488;19.268;2024-02-23T06:07:08;5.00;;;2.58;;
79747;SDS011;69232;47.488;19.268;2024-02-23T06:09:33;6.10;;;2.88;;
79747;SDS011;69232;47.488;19.268;2024-02-23T06:11:59;4.53;;;2.50;;
79747;SDS011;69232;47.488;19.268;2024-02-23T06:14:24;3.83;;;2.72;;
79747;SDS011;69232;47.488;19.268;2024-02-23T06:16:49;5.20;;;2.47;;
79747;SDS011;69232;47.488;19.268;2024-02-23T06:19:15;4.57;;;2.75;;
79747;SDS011;69232;47.488;19.268;2024-02-23T06:21:40;5.80;;;3.40;;
79747;SDS011;69232;47.488;19.268;2024-02-23T06:24:06;5.45;;;3.05;;
79747;SDS011;69232;47.488;19.268;2024-02-23T06:26:33;6.57;;;3.28;;
79747;SDS011;69232;47.488;19.268;2024-02-23T06:28:59;6.07;;;4.10;;
79747;SDS011;69232;47.488;19.268;2024-02-23T06:31:24;5.13;;;2.92;;
79747;SDS011;69232;47.488;19.268;2024-02-23T06:33:50;6.32;;;3.03;;
79747;SDS011;69232;47.488;19.268;2024-02-23T06:36:16;9.68;;;3.53;;
79747;SDS011;69232;47.488;19.268;2024-02-23T06:38:42;5.07;;;3.33;;
79747;SDS011;69232;47.488;19.268;2024-02-23T06:41:07;6.07;;;3.60;;
79747;SDS011;69232;47.488;19.268;2024-02-23T06:43:35;8.25;;;3.20;;
79747;SDS011;69232;47.488;19.268;2024-02-23T06:46:07;5.05;;;3.35;;
79747;SDS011;69232;47.488;19.268;2024-02-23T06:48:36;5.00;;;3.58;;
79747;SDS011;69232;47.488;19.268;2024-02-23T06:51:02;6.97;;;4.03;;
79747;SDS011;69232;47.488;19.268;2024-02-23T06:53:28;6.72;;;3.55;;
79747;SDS011;69232;47.488;19.268;2024-02-23T06:55:54;4.88;;;3.33;;
79747;SDS011;69232;47.488;19.268;2024-02-23T06:58:19;7.18;;;3.53;;
79747;SDS011;69232;47.488;19.268;2024-02-23T07:00:45;8.07;;;3.88;;
79747;SDS011;69232;47.488;19.268;2024-02-23T07:03:11;6.18;;;4.18;;
79747;SDS011;69232;47.488;19.268;2024-02-23T07:05:36;6.63;;;4.03;;
79747;SDS011;69232;47.488;19.268;2024-02-23T07:08:02;7.32;;;3.83;;
79747;SDS011;69232;47.488;19.268;2024-02-23T07:10:27;8.90;;;4.25;;
79747;SDS011;69232;47.488;19.268;2024-02-23T07:12:53;9.95;;;4.30;;
79747;SDS011;69232;47.488;19.268;2024-02-23T07:15:19;9.18;;;5.28;;
79747;SDS011;69232;47.488;19.268;2024-02-23T07:17:45;5.97;;;4.65;;
79747;SDS011;69232;47.488;19.268;2024-02-23T07:20:10;6.53;;;4.63;;
79747;SDS011;69232;47.488;19.268;2024-02-23T07:22:36;9.27;;;4.88;;
79747;SDS011;69232;47.488;19.268;2024-02-23T07:25:01;6.45;;;3.90;;
79747;SDS011;69232;47.488;19.268;2024-02-23T07:27:29;6.22;;;3.80;;
79747;SDS011;69232;47.488;19.268;2024-02-23T07:29:54;7.00;;;3.83;;
79747;SDS011;69232;47.488;19.268;2024-02-23T07:32:19;5.40;;;4.47;;
79747;SDS011;69232;47.488;19.268;2024-02-23T07:34:45;7.03;;;4.18;;
79747;SDS011;69232;47.488;19.268;2024-02-23T07:37:10;6.95;;;3.80;;
79747;SDS011;69232;47.488;19.268;2024-02-23T07:39:35;7.78;;;3.88;;
79747;SDS011;69232;47.488;19.268;2024-02-23T07:42:01;7.50;;;4.55;;
79747;SDS011;69232;47.488;19.268;2024-02-23T07:44:27;7.85;;;4.93;;
79747;SDS011;69232;47.488;19.268;2024-02-23T07:46:53;7.82;;;4.20;;
79747;SDS011;69232;47.488;19.268;2024-02-23T07:49:19;8.90;;;4.55;;
79747;SDS011;69232;47.488;19.268;2024-02-23T07:51:45;7.65;;;5.03;;
79747;SDS011;69232;47.488;19.268;2024-02-23T07:54:10;9.63;;;5.05;;
79747;SDS011;69232;47.488;19.268;2024-02-23T07:56:36;6.38;;;4.20;;
79747;SDS011;69232;47.488;19.268;2024-02-23T07:59:01;6.40;;;4.10;;
79747;SDS011;69232;47.488;19.268;2024-02-23T08:01:28;9.80;;;4.97;;
79747;SDS011;69232;47.488;19.268;2024-02-23T08:03:53;7.18;;;4.20;;
79747;SDS011;69232;47.488;19.268;2024-02-23T08:06:19;8.07;;;5.07;;
79747;SDS011;69232;47.488;19.268;2024-02-23T08:08:45;6.28;;;4.20;;
79747;SDS011;69232;47.488;19.268;2024-02-23T08:11:11;7.00;;;4.50;;
79747;SDS011;69232;47.488;19.268;2024-02-23T08:13:37;6.13;;;4.43;;
79747;SDS011;69232;47.488;19.268;2024-02-23T08:16:02;8.60;;;4.95;;
79747;SDS011;69232;47.488;19.268;2024-02-23T08:18:28;10.48;;;5.95;;
79747;SDS011;69232;47.488;19.268;2024-02-23T08:20:54;12.82;;;6.32;;
79747;SDS011;69232;47.488;19.268;2024-02-23T08:23:19;10.50;;;5.35;;
79747;SDS011;69232;47.488;19.268;2024-02-23T08:25:45;10.25;;;5.30;;
79747;SDS011;69232;47.488;19.268;2024-02-23T08:28:11;8.95;;;5.70;;
79747;SDS011;69232;47.488;19.268;2024-02-23T08:30:37;9.30;;;5.07;;
79747;SDS011;69232;47.488;19.268;2024-02-23T08:33:02;8.57;;;4.70;;
79747;SDS011;69232;47.488;19.268;2024-02-23T08:35:28;7.75;;;4.93;;
79747;SDS011;69232;47.488;19.268;2024-02-23T08:37:53;8.18;;;5.63;;
79747;SDS011;69232;47.488;19.268;2024-02-23T08:40:19;9.38;;;4.93;;
79747;SDS011;69232;47.488;19.268;2024-02-23T08:42:44;12.55;;;5.65;;
79747;SDS011;69232;47.488;19.268;2024-02-23T08:45:09;11.55;;;5.55;;
79747;SDS011;69232;47.488;19.268;2024-02-23T08:47:37;12.13;;;6.28;;
79747;SDS011;69232;47.488;19.268;2024-02-23T08:50:03;8.25;;;5.13;;
79747;SDS011;69232;47.488;19.268;2024-02-23T08:52:29;9.43;;;5.18;;
79747;SDS011;69232;47.488;19.268;2024-02-23T08:54:55;8.73;;;4.63;;
79747;SDS011;69232;47.488;19.268;2024-02-23T08:57:20;6.78;;;4.53;;
79747;SDS011;69232;47.488;19.268;2024-02-23T08:59:47;9.55;;;5.35;;
79747;SDS011;69232;47.488;19.268;2024-02-23T09:02:13;8.32;;;4.38;;
79747;SDS011;69232;47.488;19.268;2024-02-23T09:04:38;8.73;;;5.38;;
79747;SDS011;69232;47.488;19.268;2024-02-23T09:07:03;9.13;;;5.32;;
79747;SDS011;69232;47.488;19.268;2024-02-23T09:09:29;10.80;;;5.35;;
79747;SDS011;69232;47.488;19.268;2024-02-23T09:11:55;10.43;;;5.25;;
79747;SDS011;69232;47.488;19.268;2024-02-23T09:14:20;11.00;;;5.85;;
79747;SDS011;69232;47.488;19.268;2024-02-23T09:16:46;9.20;;;5.65;;
79747;SDS011;69232;47.488;19.268;2024-02-23T09:19:12;9.15;;;4.88;;
79747;SDS011;69232;47.488;19.268;2024-02-23T09:21:37;7.00;;;4.88;;
79747;SDS011;69232;47.488;19.268;2024-02-23T09:24:03;8.57;;;5.00;;
79747;SDS011;69232;47.488;19.268;2024-02-23T09:26:29;8.27;;;5.65;;
79747;SDS011;69232;47.488;19.268;2024-02-23T09:28:55;11.85;;;5.63;;
79747;SDS011;69232;47.488;19.268;2024-02-23T09:31:20;9.57;;;4.85;;
79747;SDS011;69232;47.488;19.268;2024-02-23T09:33:45;8.10;;;4.47;;
79747;SDS011;69232;47.488;19.268;2024-02-23T09:36:11;9.88;;;5.88;;
79747;SDS011;69232;47.488;19.268;2024-02-23T09:38:37;8.75;;;5.53;;
79747;SDS011;69232;47.488;19.268;2024-02-23T09:41:03;7.63;;;4.88;;
79747;SDS011;69232;47.488;19.268;2024-02-23T09:43:28;7.53;;;5.65;;
79747;SDS011;69232;47.488;19.268;2024-02-23T09:45:57;9.18;;;5.03;;
79747;SDS011;69232;47.488;19.268;2024-02-23T09:48:22;8.80;;;5.05;;
79747;SDS011;69232;47.488;19.268;2024-02-23T09:50:48;8.90;;;5.38;;
79747;SDS011;69232;47.488;19.268;2024-02-23T09:53:14;10.68;;;5.60;;
79747;SDS011;69232;47.488;19.268;2024-02-23T09:55:40;10.98;;;5.25;;
79747;SDS011;69232;47.488;19.268;2024-02-23T09:58:06;10.23;;;4.57;;
79747;SDS011;69232;47.488;19.268;2024-02-23T10:00:33;11.77;;;5.72;;
79747;SDS011;69232;47.488;19.268;2024-02-23T10:03:00;11.52;;;5.72;;
79747;SDS011;69232;47.488;19.268;2024-02-23T10:05:29;9.95;;;5.25;;
79747;SDS011;69232;47.488;19.268;2024-02-23T10:07:56;12.00;;;5.43;;
79747;SDS011;69232;47.488;19.268;2024-02-23T10:10:29;9.18;;;5.50;;
79747;SDS011;69232;47.488;19.268;2024-02-23T10:12:56;9.73;;;5.53;;
79747;SDS011;69232;47.488;19.268;2024-02-23T10:15:22;10.30;;;5.70;;
79747;SDS011;69232;47.488;19.268;2024-02-23T10:17:47;9.63;;;5.68;;
79747;SDS011;69232;47.488;19.268;2024-02-23T10:20:13;7.68;;;5.43;;
79747;SDS011;69232;47.488;19.268;2024-02-23T10:22:39;8.38;;;5.70;;
79747;SDS011;69232;47.488;19.268;2024-02-23T10:25:04;8.77;;;5.20;;
79747;SDS011;69232;47.488;19.268;2024-02-23T10:27:30;8.38;;;5.60;;
79747;SDS011;69232;47.488;19.268;2024-02-23T10:29:55;12.70;;;6.97;;
79747;SDS011;69232;47.488;19.268;2024-02-23T10:32:20;10.75;;;5.50;;
79747;SDS011;69232;47.488;19.268;2024-02-23T10:34:49;13.48;;;5.72;;
79747;SDS011;69232;47.488;19.268;2024-02-23T10:37:15;14.60;;;6.18;;
79747;SDS011;69232;47.488;19.268;2024-02-23T10:39:41;9.27;;;5.93;;
79747;SDS011;69232;47.488;19.268;2024-02-23T10:42:08;11.63;;;4.55;;
79747;SDS011;69232;47.488;19.268;2024-02-23T10:44:34;9.82;;;5.95;;
79747;SDS011;69232;47.488;19.268;2024-02-23T10:47:00;8.95;;;6.00;;
79747;SDS011;69232;47.488;19.268;2024-02-23T10:49:26;10.98;;;6.30;;
79747;SDS011;69232;47.488;19.268;2024-02-23T10:51:52;11.45;;;6.63;;
79747;SDS011;69232;47.488;19.268;2024-02-23T10:54:18;11.45;;;7.22;;
79747;SDS011;69232;47.488;19.268;2024-02-23T10:56:52;10.65;;;6.85;;
79747;SDS011;69232;47.488;19.268;2024-02-23T10:59:18;11.10;;;6.28;;
79747;SDS011;69232;47.488;19.268;2024-02-23T11:01:45;9.32;;;6.82;;
79747;SDS011;69232;47.488;19.268;2024-02-23T11:04:12;11.00;;;6.40;;
79747;SDS011;69232;47.488;19.268;2024-02-23T11:06:38;11.57;;;6.45;;
79747;SDS011;69232;47.488;19.268;2024-02-23T11:09:07;7.68;;;5.47;;
79747;SDS011;69232;47.488;19.268;2024-02-23T11:11:34;9.40;;;6.05;;
79747;SDS011;69232;47.488;19.268;2024-02-23T11:14:02;10.95;;;5.72;;
79747;SDS011;69232;47.488;19.268;2024-02-23T11:16:28;8.23;;;5.38;;
79747;SDS011;69232;47.488;19.268;2024-02-23T11:19:06;10.90;;;5.53;;
79747;SDS011;69232;47.488;19.268;2024-02-23T11:21:36;6.85;;;4.63;;
79747;SDS011;69232;47.488;19.268;2024-02-23T11:24:02;9.15;;;5.40;;
79747;SDS011;69232;47.488;19.268;2024-02-23T11:26:29;8.73;;;5.72;;
79747;SDS011;69232;47.488;19.268;2024-02-23T11:28:54;11.32;;;5.88;;
79747;SDS011;69232;47.488;19.268;2024-02-23T11:31:20;12.23;;;6.40;;
79747;SDS011;69232;47.488;19.268;2024-02-23T11:33:53;9.68;;;6.38;;
79747;SDS011;69232;47.488;19.268;2024-02-23T11:36:30;13.23;;;6.57;;
79747;SDS011;69232;47.488;19.268;2024-02-23T11:38:57;10.95;;;5.30;;
79747;SDS011;69232;47.488;19.268;2024-02-23T11:41:23;9.48;;;5.38;;
79747;SDS011;69232;47.488;19.268;2024-02-23T11:43:50;9.20;;;5.55;;
79747;SDS011;69232;47.488;19.268;2024-02-23T11:46:16;11.43;;;5.80;;
79747;SDS011;69232;47.488;19.268;2024-02-23T11:48:42;7.97;;;4.93;;
79747;SDS011;69232;47.488;19.268;2024-02-23T11:51:08;8.93;;;5.75;;
79747;SDS011;69232;47.488;19.268;2024-02-23T11:53:35;8.27;;;5.15;;
79747;SDS011;69232;47.488;19.268;2024-02-23T11:56:03;10.43;;;5.28;;
79747;SDS011;69232;47.488;19.268;2024-02-23T11:58:32;9.02;;;5.32;;
79747;SDS011;69232;47.488;19.268;2024-02-23T12:00:58;9.52;;;5.38;;
79747;SDS011;69232;47.488;19.268;2024-02-23T12:03:25;8.30;;;4.80;;
79747;SDS011;69232;47.488;19.268;2024-02-23T12:05:51;9.00;;;5.15;;
79747;SDS011;69232;47.488;19.268;2024-02-23T12:08:16;7.82;;;5.10;;
79747;SDS011;69232;47.488;19.268;2024-02-23T12:10:42;9.80;;;5.03;;
79747;SDS011;69232;47.488;19.268;2024-02-23T12:13:08;9.65;;;5.43;;
79747;SDS011;69232;47.488;19.268;2024-02-23T12:15:33;9.05;;;5.20;;
79747;SDS011;69232;47.488;19.268;2024-02-23T12:17:59;11.60;;;5.22;;
79747;SDS011;69232;47.488;19.268;2024-02-23T12:20:27;10.82;;;4.93;;
79747;SDS011;69232;47.488;19.268;2024-02-23T12:22:54;13.05;;;5.80;;
79747;SDS011;69232;47.488;19.268;2024-02-23T12:25:21;10.93;;;4.50;;
79747;SDS011;69232;47.488;19.268;2024-02-23T12:27:46;9.73;;;4.35;;
79747;SDS011;69232;47.488;19.268;2024-02-23T12:30:15;9.45;;;4.38;;
79747;SDS011;69232;47.488;19.268;2024-02-23T12:32:42;9.88;;;4.30;;
79747;SDS011;69232;47.488;19.268;2024-02-23T12:35:07;7.85;;;4.05;;
79747;SDS011;69232;47.488;19.268;2024-02-23T12:37:36;8.52;;;4.18;;
79747;SDS011;69232;47.488;19.268;2024-02-23T12:40:02;6.18;;;4.28;;
79747;SDS011;69232;47.488;19.268;2024-02-23T12:42:27;6.82;;;4.15;;
79747;SDS011;69232;47.488;19.268;2024-02-23T12:44:53;6.95;;;4.50;;
79747;SDS011;69232;47.488;19.268;2024-02-23T12:47:18;6.95;;;4.20;;
79747;SDS011;69232;47.488;19.268;2024-02-23T12:49:43;8.25;;;4.47;;
79747;SDS011;69232;47.488;19.268;2024-02-23T12:52:09;7.63;;;4.15;;
79747;SDS011;69232;47.488;19.268;2024-02-23T12:54:34;9.15;;;4.90;;
79747;SDS011;69232;47.488;19.268;2024-02-23T12:56:59;7.65;;;5.00;;
79747;SDS011;69232;47.488;19.268;2024-02-23T12:59:25;9.30;;;4.65;;
79747;SDS011;69232;47.488;19.268;2024-02-23T13:01:50;7.75;;;4.45;;
79747;SDS011;69232;47.488;19.268;2024-02-23T13:04:15;8.07;;;4.43;;
79747;SDS011;69232;47.488;19.268;2024-02-23T13:06:41;7.45;;;4.57;;
79747;SDS011;69232;47.488;19.268;2024-02-23T13:09:07;8.38;;;5.15;;
79747;SDS011;69232;47.488;19.268;2024-02-23T13:11:33;7.10;;;4.80;;
79747;SDS011;69232;47.488;19.268;2024-02-23T13:14:00;10.80;;;4.80;;
79747;SDS011;69232;47.488;19.268;2024-02-23T13:16:25;7.10;;;4.03;;
79747;SDS011;69232;47.488;19.268;2024-02-23T13:18:50;7.28;;;4.03;;
79747;SDS011;69232;47.488;19.268;2024-02-23T13:21:16;8.13;;;4.90;;
79747;SDS011;69232;47.488;19.268;2024-02-23T13:23:41;8.20;;;4.55;;
79747;SDS011;69232;47.488;19.268;2024-02-23T13:26:08;7.38;;;4.55;;
79747;SDS011;69232;47.488;19.268;2024-02-23T13:28:35;9.63;;;4.70;;
79747;SDS011;69232;47.488;19.268;2024-02-23T13:31:01;7.95;;;4.57;;
79747;SDS011;69232;47.488;19.268;2024-02-23T13:33:27;7.53;;;4.25;;
79747;SDS011;69232;47.488;19.268;2024-02-23T13:35:53;6.30;;;4.13;;
79747;SDS011;69232;47.488;19.268;2024-02-23T13:38:20;7.50;;;4.05;;
79747;SDS011;69232;47.488;19.268;2024-02-23T13:40:45;8.10;;;4.70;;
79747;SDS011;69232;47.488;19.268;2024-02-23T13:43:11;7.72;;;4.45;;
79747;SDS011;69232;47.488;19.268;2024-02-23T13:45:47;10.50;;;4.85;;
79747;SDS011;69232;47.488;19.268;2024-02-23T13:48:16;9.02;;;5.43;;
79747;SDS011;69232;47.488;19.268;2024-02-23T13:50:43;7.82;;;4.78;;
79747;SDS011;69232;47.488;19.268;2024-02-23T13:53:09;8.63;;;4.65;;
79747;SDS011;69232;47.488;19.268;2024-02-23T13:55:34;11.77;;;5.68;;
79747;SDS011;69232;47.488;19.268;2024-02-23T13:57:59;15.45;;;7.20;;
79747;SDS011;69232;47.488;19.268;2024-02-23T14:00:25;13.07;;;5.25;;
79747;SDS011;69232;47.488;19.268;2024-02-23T14:02:51;9.57;;;5.38;;
79747;SDS011;69232;47.488;19.268;2024-02-23T14:05:16;9.25;;;4.82;;
79747;SDS011;69232;47.488;19.268;2024-02-23T14:07:43;10.80;;;5.57;;
79747;SDS011;69232;47.488;19.268;2024-02-23T14:10:09;8.85;;;4.95;;
79747;SDS011;69232;47.488;19.268;2024-02-23T14:12:34;9.48;;;6.03;;
79747;SDS011;69232;47.488;19.268;2024-02-23T14:15:00;12.73;;;5.72;;
79747;SDS011;69232;47.488;19.268;2024-02-23T14:17:25;12.43;;;6.35;;
79747;SDS011;69232;47.488;19.268;2024-02-23T14:19:51;14.55;;;7.32;;
79747;SDS011;69232;47.488;19.268;2024-02-23T14:22:17;14.02;;;6.95;;
79747;SDS011;69232;47.488;19.268;2024-02-23T14:24:43;15.75;;;8.00;;